Time;durP1;ratioP1;P1;durP2;ratioP2;P2;SDS_P1;SDS_P2;PMS_P1;PMS_P2;Temp;Humidity;BMP_temperature;BMP_pressure;BME280_temperature;BME280_humidity;BME280_pressure;Samples;Min_cycle;Max_cycle;Signal;HPM_P1;HPM_P2
2022/09/30 00:01:16;;;;;;;5.18;4.30;;;;;;;;;;5049846;28;20041;-67
2022/09/30 00:03:42;;;;;;;4.45;3.85;;;;;;;;;;5044084;28;20605;-67
2022/09/30 00:06:09;;;;;;;4.75;3.45;;;;;;;;;;5051309;28;20036;-68
2022/09/30 00:08:38;;;;;;;4.60;3.90;;;;;;;;;;5048183;28;20040;-68
2022/09/30 00:11:16;;;;;;;4.70;3.60;;;;;;;;;;5050306;28;20041;-67
2022/09/30 00:13:43;;;;;;;4.20;3.78;;;;;;;;;;5041106;28;20097;-67
2022/09/30 00:16:09;;;;;;;3.75;3.30;;;;;;;;;;5048437;28;20052;-67
2022/09/30 00:18:36;;;;;;;4.57;4.13;;;;;;;;;;5045169;28;20043;-67
2022/09/30 00:21:02;;;;;;;4.93;4.03;;;;;;;;;;5047926;28;20507;-67
2022/09/30 00:23:28;;;;;;;4.40;3.95;;;;;;;;;;5050797;28;20068;-68
2022/09/30 00:26:01;;;;;;;5.15;4.30;;;;;;;;;;5049042;28;20120;-68
2022/09/30 00:28:28;;;;;;;7.03;5.50;;;;;;;;;;5051676;28;20041;-67
2022/09/30 00:30:54;;;;;;;5.35;4.53;;;;;;;;;;5034551;28;20096;-67
2022/09/30 00:33:20;;;;;;;4.80;4.40;;;;;;;;;;5056833;28;20047;-68
2022/09/30 00:35:46;;;;;;;4.55;4.15;;;;;;;;;;5049995;28;20076;-67
2022/09/30 00:38:12;;;;;;;5.35;4.85;;;;;;;;;;5051987;28;20045;-67
2022/09/30 00:40:38;;;;;;;5.47;4.97;;;;;;;;;;5060031;28;20105;-67
2022/09/30 00:43:13;;;;;;;6.32;5.00;;;;;;;;;;5056295;28;20783;-67
2022/09/30 00:45:39;;;;;;;4.22;3.80;;;;;;;;;;5041555;28;20051;-68
2022/09/30 00:48:11;;;;;;;3.30;3.00;;;;;;;;;;5049788;28;20041;-67
2022/09/30 00:50:44;;;;;;;3.63;3.33;;;;;;;;;;5032203;28;20503;-67
2022/09/30 00:53:10;;;;;;;4.15;3.75;;;;;;;;;;5041600;28;20037;-67
2022/09/30 00:55:40;;;;;;;3.55;3.17;;;;;;;;;;5050674;28;20041;-67
2022/09/30 00:58:08;;;;;;;5.20;4.70;;;;;;;;;;5044282;28;20041;-67
2022/09/30 01:00:34;;;;;;;3.75;3.08;;;;;;;;;;5031563;28;20299;-67
2022/09/30 01:03:01;;;;;;;4.78;4.20;;;;;;;;;;5051407;28;20495;-68
2022/09/30 01:05:27;;;;;;;2.97;2.70;;;;;;;;;;5049153;28;20053;-67
2022/09/30 01:07:56;;;;;;;5.10;2.72;;;;;;;;;;5046663;28;20036;-67
2022/09/30 01:10:22;;;;;;;4.93;4.30;;;;;;;;;;5048544;28;20061;-67
2022/09/30 01:12:48;;;;;;;5.80;5.30;;;;;;;;;;5054283;28;20048;-67
2022/09/30 01:15:14;;;;;;;7.55;5.50;;;;;;;;;;5049772;28;20183;-67
2022/09/30 01:17:59;;;;;;;5.57;5.07;;;;;;;;;;5047266;28;20045;-67
2022/09/30 01:20:25;;;;;;;6.90;5.70;;;;;;;;;;5046891;28;20037;-68
2022/09/30 01:22:55;;;;;;;4.63;4.13;;;;;;;;;;5047208;28;20131;-67
2022/09/30 01:25:39;;;;;;;4.55;4.03;;;;;;;;;;5058676;28;20048;-67
2022/09/30 01:28:05;;;;;;;4.63;4.22;;;;;;;;;;5053185;28;20068;-67
2022/09/30 01:30:46;;;;;;;5.10;4.60;;;;;;;;;;5052207;28;20398;-67
2022/09/30 01:33:12;;;;;;;4.45;4.05;;;;;;;;;;5055888;28;20036;-67
2022/09/30 01:35:49;;;;;;;4.93;4.53;;;;;;;;;;5057868;28;20040;-67
2022/09/30 01:38:24;;;;;;;4.68;3.95;;;;;;;;;;5061049;28;20111;-67
2022/09/30 01:41:00;;;;;;;5.75;5.07;;;;;;;;;;5071569;28;20486;-67
2022/09/30 01:43:39;;;;;;;6.22;5.60;;;;;;;;;;5051957;28;20040;-67
2022/09/30 01:46:14;;;;;;;6.68;5.50;;;;;;;;;;5062350;28;20040;-67
2022/09/30 01:48:46;;;;;;;6.68;6.07;;;;;;;;;;5037123;28;20065;-67
2022/09/30 01:51:28;;;;;;;6.55;5.95;;;;;;;;;;5058682;28;20067;-66
2022/09/30 01:54:07;;;;;;;5.95;5.45;;;;;;;;;;5054001;28;20048;-67
2022/09/30 01:56:41;;;;;;;5.20;4.70;;;;;;;;;;5061454;28;20121;-67
2022/09/30 01:59:10;;;;;;;21.90;5.30;;;;;;;;;;5053943;28;20052;-67
2022/09/30 02:01:39;;;;;;;5.72;5.07;;;;;;;;;;5054182;28;20059;-67
2022/09/30 02:04:08;;;;;;;5.63;5.13;;;;;;;;;;5053968;28;20275;-67
2022/09/30 02:06:37;;;;;;;5.70;5.05;;;;;;;;;;5050259;28;20041;-67
2022/09/30 02:09:03;;;;;;;4.90;4.50;;;;;;;;;;5058586;28;20036;-67
2022/09/30 02:11:33;;;;;;;4.47;4.07;;;;;;;;;;5073713;28;20028;-67
2022/09/30 02:14:10;;;;;;;4.57;4.18;;;;;;;;;;5050289;28;20577;-67
2022/09/30 02:16:58;;;;;;;4.50;4.10;;;;;;;;;;5067489;28;20048;-66
2022/09/30 02:19:35;;;;;;;4.70;4.30;;;;;;;;;;5090553;22;20074;-64
2022/09/30 02:22:05;;;;;;;3.25;3.05;;;;;;;;;;5095618;28;20024;-64
2022/09/30 02:24:37;;;;;;;23.63;4.72;;;;;;;;;;5088284;28;20036;-64
2022/09/30 02:27:05;;;;;;;5.05;4.00;;;;;;;;;;5094806;28;20496;-64
2022/09/30 02:29:34;;;;;;;4.13;3.72;;;;;;;;;;5099199;28;20031;-64
2022/09/30 02:32:01;;;;;;;4.25;3.85;;;;;;;;;;5102241;28;20116;-64
2022/09/30 02:34:31;;;;;;;5.25;4.15;;;;;;;;;;5089215;28;20084;-64
2022/09/30 02:37:03;;;;;;;3.28;2.97;;;;;;;;;;5092656;28;20540;-64
2022/09/30 02:39:33;;;;;;;58.88;5.78;;;;;;;;;;5097052;28;20039;-64
2022/09/30 02:42:07;;;;;;;4.18;3.88;;;;;;;;;;5110501;28;20639;-64
2022/09/30 02:44:33;;;;;;;4.07;3.78;;;;;;;;;;5085721;28;20075;-64
2022/09/30 02:46:59;;;;;;;3.85;3.55;;;;;;;;;;5091732;28;20032;-64
2022/09/30 02:49:44;;;;;;;3.92;3.50;;;;;;;;;;5085756;28;20033;-64
2022/09/30 02:52:28;;;;;;;3.50;3.20;;;;;;;;;;5093394;28;20085;-64
2022/09/30 02:55:01;;;;;;;3.65;3.30;;;;;;;;;;5091863;28;20044;-64
2022/09/30 02:57:51;;;;;;;3.50;3.20;;;;;;;;;;5093778;28;20071;-64
2022/09/30 03:00:17;;;;;;;12.23;3.47;;;;;;;;;;5093457;28;20040;-64
2022/09/30 03:02:43;;;;;;;8.98;3.63;;;;;;;;;;5098038;28;20123;-64
2022/09/30 03:05:10;;;;;;;4.30;3.10;;;;;;;;;;5092013;28;20126;-64
2022/09/30 03:07:36;;;;;;;18.10;4.82;;;;;;;;;;5096736;28;20046;-64
2022/09/30 03:10:11;;;;;;;30.88;5.38;;;;;;;;;;5107725;28;20115;-64
2022/09/30 03:12:41;;;;;;;13.90;4.60;;;;;;;;;;5089767;28;20036;-64
2022/09/30 03:15:10;;;;;;;7.53;4.25;;;;;;;;;;5090492;28;20036;-64
2022/09/30 03:17:42;;;;;;;4.20;3.90;;;;;;;;;;5092026;28;20055;-64
2022/09/30 03:20:27;;;;;;;4.35;3.95;;;;;;;;;;5101351;28;20047;-64
2022/09/30 03:23:12;;;;;;;7.13;5.28;;;;;;;;;;5101111;28;20097;-64
2022/09/30 03:25:53;;;;;;;9.35;5.03;;;;;;;;;;5090965;28;20190;-64
2022/09/30 03:28:28;;;;;;;9.73;5.40;;;;;;;;;;5093011;28;20044;-65
2022/09/30 03:31:15;;;;;;;29.17;5.90;;;;;;;;;;5089003;28;20040;-65
2022/09/30 03:34:06;;;;;;;20.95;6.32;;;;;;;;;;5090331;28;20039;-65
2022/09/30 03:36:41;;;;;;;26.15;6.03;;;;;;;;;;5092244;28;20075;-64
2022/09/30 03:39:23;;;;;;;7.35;5.72;;;;;;;;;;5092401;28;20497;-64
2022/09/30 03:41:56;;;;;;;6.88;5.43;;;;;;;;;;5109263;28;20043;-64
2022/09/30 03:44:24;;;;;;;26.08;5.28;;;;;;;;;;5089623;28;20400;-64
2022/09/30 03:46:56;;;;;;;5.93;4.35;;;;;;;;;;5078848;28;20115;-64
2022/09/30 03:49:28;;;;;;;4.80;4.35;;;;;;;;;;5096974;28;20051;-65
2022/09/30 03:51:54;;;;;;;10.95;3.70;;;;;;;;;;5089868;28;20075;-65
2022/09/30 03:54:21;;;;;;;11.02;4.10;;;;;;;;;;5088832;28;20036;-65
2022/09/30 03:56:47;;;;;;;5.28;4.43;;;;;;;;;;5089768;28;20048;-65
2022/09/30 03:59:22;;;;;;;4.38;3.97;;;;;;;;;;5090365;28;20171;-65
2022/09/30 04:01:48;;;;;;;5.40;4.45;;;;;;;;;;5090773;28;20032;-65
2022/09/30 04:04:14;;;;;;;4.50;4.10;;;;;;;;;;5085736;28;20033;-65
2022/09/30 04:06:40;;;;;;;5.30;4.80;;;;;;;;;;5088847;28;20044;-65
2022/09/30 04:09:06;;;;;;;10.18;5.28;;;;;;;;;;5091358;28;20040;-65
2022/09/30 04:11:32;;;;;;;27.80;6.40;;;;;;;;;;5100626;28;20036;-65
2022/09/30 04:14:00;;;;;;;37.08;6.60;;;;;;;;;;5089616;28;20039;-65
2022/09/30 04:16:26;;;;;;;33.20;6.28;;;;;;;;;;5091713;28;20038;-65
2022/09/30 04:18:52;;;;;;;40.95;5.93;;;;;;;;;;5090793;28;20036;-64
2022/09/30 04:21:18;;;;;;;36.70;6.15;;;;;;;;;;5102352;28;20161;-65
2022/09/30 04:23:44;;;;;;;12.18;4.68;;;;;;;;;;5095668;28;20042;-65
2022/09/30 04:26:11;;;;;;;18.75;4.15;;;;;;;;;;5087375;28;20135;-65
2022/09/30 04:28:37;;;;;;;4.40;4.00;;;;;;;;;;5089336;28;20039;-65
2022/09/30 04:31:04;;;;;;;4.65;4.25;;;;;;;;;;5091453;28;20032;-65
2022/09/30 04:33:30;;;;;;;4.22;3.92;;;;;;;;;;5100849;28;20044;-65
2022/09/30 04:35:57;;;;;;;5.30;4.80;;;;;;;;;;5088537;28;20081;-65
2022/09/30 04:38:23;;;;;;;4.53;4.13;;;;;;;;;;5090277;28;20074;-65
2022/09/30 04:40:50;;;;;;;5.13;4.72;;;;;;;;;;5090354;28;20078;-65
2022/09/30 04:43:17;;;;;;;8.30;4.13;;;;;;;;;;5090774;28;20040;-65
2022/09/30 04:45:44;;;;;;;6.53;4.50;;;;;;;;;;5091478;28;20040;-65
2022/09/30 04:48:10;;;;;;;4.57;4.13;;;;;;;;;;5090686;28;20043;-65
2022/09/30 04:50:36;;;;;;;4.55;4.07;;;;;;;;;;5092869;28;20105;-65
2022/09/30 04:53:05;;;;;;;5.10;4.60;;;;;;;;;;5088498;28;20489;-65
2022/09/30 04:55:31;;;;;;;5.30;4.80;;;;;;;;;;5089510;28;20043;-65
2022/09/30 04:57:57;;;;;;;9.80;5.10;;;;;;;;;;5089692;28;20036;-65
2022/09/30 05:00:24;;;;;;;45.88;6.78;;;;;;;;;;5084153;28;20097;-65
2022/09/30 05:02:50;;;;;;;32.55;5.50;;;;;;;;;;5108129;28;20051;-65
2022/09/30 05:05:16;;;;;;;16.77;4.95;;;;;;;;;;5090107;28;20115;-65
2022/09/30 05:07:43;;;;;;;16.45;4.20;;;;;;;;;;5089432;28;20497;-65
2022/09/30 05:10:12;;;;;;;7.03;4.10;;;;;;;;;;5096660;28;20043;-65
2022/09/30 05:12:41;;;;;;;16.55;4.45;;;;;;;;;;5094043;28;20489;-65
2022/09/30 05:15:08;;;;;;;11.95;4.20;;;;;;;;;;5093062;28;20508;-65
2022/09/30 05:17:34;;;;;;;41.03;6.47;;;;;;;;;;5090377;28;20048;-65
2022/09/30 05:20:00;;;;;;;49.75;6.47;;;;;;;;;;5089744;28;20114;-65
2022/09/30 05:22:27;;;;;;;80.13;7.47;;;;;;;;;;5091481;28;20093;-65
2022/09/30 05:24:54;;;;;;;37.53;5.40;;;;;;;;;;5088076;28;20040;-65
2022/09/30 05:27:21;;;;;;;73.50;6.38;;;;;;;;;;5083386;28;20046;-65
2022/09/30 05:29:47;;;;;;;25.98;4.88;;;;;;;;;;5085296;28;20563;-65
2022/09/30 05:32:13;;;;;;;27.65;4.45;;;;;;;;;;5091575;28;20043;-65
2022/09/30 05:34:39;;;;;;;64.00;5.80;;;;;;;;;;5092692;28;20044;-65
2022/09/30 05:37:06;;;;;;;51.47;5.80;;;;;;;;;;5089474;28;20409;-65
2022/09/30 05:39:32;;;;;;;9.88;4.18;;;;;;;;;;5087735;28;20061;-65
2022/09/30 05:41:58;;;;;;;6.68;3.40;;;;;;;;;;5083812;28;20556;-65
2022/09/30 05:44:24;;;;;;;9.88;3.42;;;;;;;;;;5089764;28;20036;-65
2022/09/30 05:46:50;;;;;;;3.47;3.17;;;;;;;;;;5091287;28;20036;-65
2022/09/30 05:49:16;;;;;;;3.95;3.60;;;;;;;;;;5080870;28;20039;-65
2022/09/30 05:51:42;;;;;;;3.88;3.47;;;;;;;;;;5089500;28;20421;-65
2022/09/30 05:54:09;;;;;;;4.13;3.72;;;;;;;;;;5089883;28;20505;-65
2022/09/30 05:56:39;;;;;;;4.72;3.50;;;;;;;;;;5084285;28;20044;-65
2022/09/30 05:59:05;;;;;;;4.35;3.50;;;;;;;;;;5084089;28;20566;-65
2022/09/30 06:01:31;;;;;;;2.85;2.65;;;;;;;;;;5086930;28;20441;-65
2022/09/30 06:03:57;;;;;;;3.45;3.15;;;;;;;;;;5083640;28;20041;-65
2022/09/30 06:06:23;;;;;;;3.47;3.20;;;;;;;;;;5087936;28;20040;-65
2022/09/30 06:08:49;;;;;;;2.67;2.47;;;;;;;;;;5091524;28;20075;-65
2022/09/30 06:11:20;;;;;;;3.08;2.88;;;;;;;;;;5094236;28;20047;-65
2022/09/30 06:13:48;;;;;;;2.80;2.60;;;;;;;;;;5087857;28;20037;-65
2022/09/30 06:16:15;;;;;;;2.85;2.65;;;;;;;;;;5086266;28;20040;-65
2022/09/30 06:18:41;;;;;;;3.10;2.90;;;;;;;;;;5090677;28;20028;-65
2022/09/30 06:21:09;;;;;;;3.20;2.90;;;;;;;;;;5084712;28;20028;-65
2022/09/30 06:23:35;;;;;;;3.17;2.90;;;;;;;;;;5090707;28;20455;-65
2022/09/30 06:26:02;;;;;;;5.10;4.07;;;;;;;;;;5087690;28;20107;-65
2022/09/30 06:28:28;;;;;;;4.75;4.35;;;;;;;;;;5092139;28;20087;-65
2022/09/30 06:30:54;;;;;;;4.63;4.22;;;;;;;;;;5094110;28;20035;-65
2022/09/30 06:33:21;;;;;;;5.43;4.90;;;;;;;;;;5094110;28;20043;-65
2022/09/30 06:35:47;;;;;;;5.82;5.22;;;;;;;;;;5090392;28;20051;-65
2022/09/30 06:38:17;;;;;;;6.40;5.80;;;;;;;;;;5089080;28;20047;-65
2022/09/30 06:40:43;;;;;;;7.85;6.45;;;;;;;;;;5089186;28;20101;-65
2022/09/30 06:43:10;;;;;;;7.80;7.00;;;;;;;;;;5094062;28;20039;-65
2022/09/30 06:45:36;;;;;;;7.40;6.70;;;;;;;;;;5094143;28;21398;-66
2022/09/30 06:48:04;;;;;;;9.27;6.68;;;;;;;;;;5088800;28;20040;-65
2022/09/30 06:50:30;;;;;;;8.02;6.72;;;;;;;;;;5089975;28;20059;-65
2022/09/30 06:52:58;;;;;;;7.70;6.97;;;;;;;;;;5093956;28;20047;-65
2022/09/30 06:55:25;;;;;;;9.80;7.68;;;;;;;;;;5092753;28;20044;-64
2022/09/30 06:57:51;;;;;;;8.00;6.72;;;;;;;;;;5087918;28;20052;-65
2022/09/30 07:00:18;;;;;;;7.63;6.78;;;;;;;;;;5090009;28;20040;-64
2022/09/30 07:02:44;;;;;;;11.93;7.57;;;;;;;;;;5087679;28;20052;-65
2022/09/30 07:05:10;;;;;;;10.45;8.30;;;;;;;;;;5089024;28;20055;-64
2022/09/30 07:07:36;;;;;;;9.10;7.70;;;;;;;;;;5092170;28;20048;-65
2022/09/30 07:10:03;;;;;;;14.27;8.90;;;;;;;;;;5089588;28;20389;-65
2022/09/30 07:12:29;;;;;;;12.85;9.93;;;;;;;;;;5089482;28;20536;-65
2022/09/30 07:14:56;;;;;;;12.52;9.95;;;;;;;;;;5084095;28;20122;-65
2022/09/30 07:17:22;;;;;;;14.52;10.05;;;;;;;;;;5082790;28;20085;-65
2022/09/30 07:19:50;;;;;;;13.43;9.90;;;;;;;;;;5090530;28;20081;-65
2022/09/30 07:22:26;;;;;;;12.40;10.02;;;;;;;;;;5092324;28;20044;-65
2022/09/30 07:24:52;;;;;;;11.60;9.40;;;;;;;;;;5085495;28;20039;-65
2022/09/30 07:27:18;;;;;;;11.63;9.15;;;;;;;;;;5088987;28;20040;-65
2022/09/30 07:29:44;;;;;;;13.70;10.52;;;;;;;;;;5089614;28;20093;-65
2022/09/30 07:32:11;;;;;;;12.38;9.85;;;;;;;;;;5090135;28;20255;-65
2022/09/30 07:34:41;;;;;;;12.85;10.20;;;;;;;;;;5090807;28;20093;-65
2022/09/30 07:37:08;;;;;;;13.25;10.27;;;;;;;;;;5088731;28;20097;-65
2022/09/30 07:39:34;;;;;;;13.13;10.23;;;;;;;;;;5091584;28;20129;-64
2022/09/30 07:42:03;;;;;;;13.55;10.02;;;;;;;;;;5093129;28;20040;-65
2022/09/30 07:44:29;;;;;;;13.05;10.07;;;;;;;;;;5088524;28;20397;-65
2022/09/30 07:46:55;;;;;;;12.43;10.18;;;;;;;;;;5089791;28;20036;-65
2022/09/30 07:49:25;;;;;;;12.10;10.15;;;;;;;;;;5080779;28;20048;-65
2022/09/30 07:51:52;;;;;;;12.85;10.23;;;;;;;;;;5087762;28;20536;-65
2022/09/30 07:54:21;;;;;;;11.38;9.77;;;;;;;;;;5085513;28;20040;-65
2022/09/30 07:56:48;;;;;;;12.68;9.73;;;;;;;;;;5091020;28;20075;-65
2022/09/30 07:59:13;;;;;;;11.85;9.15;;;;;;;;;;5086172;28;20039;-65
2022/09/30 08:01:40;;;;;;;11.52;10.00;;;;;;;;;;5087756;28;20089;-65
2022/09/30 08:04:09;;;;;;;13.45;10.25;;;;;;;;;;5089216;28;20119;-65
2022/09/30 08:06:55;;;;;;;13.38;9.75;;;;;;;;;;5082724;28;20508;-65
2022/09/30 08:09:22;;;;;;;13.32;9.93;;;;;;;;;;5082347;28;20533;-65
2022/09/30 08:11:48;;;;;;;13.63;9.77;;;;;;;;;;5078914;28;20035;-65
2022/09/30 08:14:15;;;;;;;13.93;9.80;;;;;;;;;;5085012;28;20055;-65
2022/09/30 08:16:41;;;;;;;16.05;10.68;;;;;;;;;;5086853;28;20043;-65
2022/09/30 08:21:47;;;;;;;12.45;9.38;;;;;;;;;;5067052;28;20052;-64
2022/09/30 08:24:14;;;;;;;13.13;9.57;;;;;;;;;;5065819;28;20068;-63
2022/09/30 08:26:40;;;;;;;13.55;9.80;;;;;;;;;;5068945;28;20062;-62
2022/09/30 08:29:06;;;;;;;12.77;9.32;;;;;;;;;;5071199;28;20032;-63
2022/09/30 08:31:33;;;;;;;12.40;9.55;;;;;;;;;;5062805;28;20048;-63
2022/09/30 08:33:59;;;;;;;11.95;9.65;;;;;;;;;;5070588;28;20451;-62
2022/09/30 08:36:26;;;;;;;11.02;9.15;;;;;;;;;;5068762;28;20039;-64
2022/09/30 08:38:52;;;;;;;10.90;8.82;;;;;;;;;;5069930;28;20451;-63
2022/09/30 08:41:43;;;;;;;10.45;8.95;;;;;;;;;;5070538;28;20048;-63
2022/09/30 08:44:19;;;;;;;14.43;9.50;;;;;;;;;;5070719;28;20041;-64
2022/09/30 08:46:51;;;;;;;11.13;9.15;;;;;;;;;;5051231;28;20084;-63
2022/09/30 08:49:43;;;;;;;11.25;9.00;;;;;;;;;;5050653;28;20048;-63
2022/09/30 08:52:15;;;;;;;9.85;7.90;;;;;;;;;;5069538;28;20090;-64
2022/09/30 08:54:44;;;;;;;13.05;8.20;;;;;;;;;;5070235;28;20111;-64
2022/09/30 08:57:11;;;;;;;10.25;8.88;;;;;;;;;;5070760;28;20125;-64
2022/09/30 08:59:40;;;;;;;10.02;8.15;;;;;;;;;;5070966;28;20049;-64
2022/09/30 09:02:06;;;;;;;9.02;8.07;;;;;;;;;;5070740;28;20414;-65
2022/09/30 09:04:32;;;;;;;9.82;7.78;;;;;;;;;;5070087;28;20037;-64
2022/09/30 09:07:04;;;;;;;8.65;6.60;;;;;;;;;;5070506;28;20045;-65
2022/09/30 09:09:42;;;;;;;11.15;7.70;;;;;;;;;;5070310;28;20044;-64
2022/09/30 09:12:11;;;;;;;7.45;6.70;;;;;;;;;;5071408;28;20040;-64
2022/09/30 09:14:48;;;;;;;7.55;6.78;;;;;;;;;;5070860;28;20036;-64
2022/09/30 09:17:32;;;;;;;8.00;6.75;;;;;;;;;;5070890;28;20480;-63
2022/09/30 09:20:02;;;;;;;8.88;7.35;;;;;;;;;;5068599;28;20091;-63
2022/09/30 09:22:30;;;;;;;8.15;6.85;;;;;;;;;;5070927;28;20052;-63
2022/09/30 09:24:56;;;;;;;8.82;6.78;;;;;;;;;;5070603;28;20566;-64
2022/09/30 09:27:28;;;;;;;9.55;7.53;;;;;;;;;;5070481;28;20055;-64
2022/09/30 09:29:54;;;;;;;8.85;7.55;;;;;;;;;;5070505;28;20094;-63
2022/09/30 09:32:20;;;;;;;8.85;7.68;;;;;;;;;;5071046;28;20041;-64
2022/09/30 09:34:55;;;;;;;12.00;8.48;;;;;;;;;;5069678;28;20040;-64
2022/09/30 09:38:23;;;;;;;9.98;8.40;;;;;;;;;;5070847;28;20087;-63
2022/09/30 09:40:13;;;;;;;10.65;8.40;;;;;;;;;;5070061;28;20447;-63
2022/09/30 09:42:46;;;;;;;8.32;7.35;;;;;;;;;;5070754;28;20179;-63
2022/09/30 09:45:12;;;;;;;9.05;7.13;;;;;;;;;;5071736;28;20052;-63
2022/09/30 09:47:38;;;;;;;9.32;6.95;;;;;;;;;;5074323;28;20044;-63
2022/09/30 09:50:12;;;;;;;8.13;7.22;;;;;;;;;;5074273;28;20043;-64
2022/09/30 09:52:56;;;;;;;7.95;7.13;;;;;;;;;;5074422;28;20037;-65
2022/09/30 09:55:23;;;;;;;11.15;7.97;;;;;;;;;;5066281;28;20064;-64
2022/09/30 09:58:04;;;;;;;9.35;7.65;;;;;;;;;;5054231;28;20039;-65
2022/09/30 10:03:25;;;;;;;9.85;8.65;;;;;;;;;;5064420;28;20091;-64
2022/09/30 10:06:00;;;;;;;11.77;8.70;;;;;;;;;;5069793;28;20045;-65
2022/09/30 10:08:27;;;;;;;11.32;9.38;;;;;;;;;;5072844;28;20498;-63
2022/09/30 10:10:55;;;;;;;12.10;8.60;;;;;;;;;;5073370;28;20044;-63
2022/09/30 10:13:21;;;;;;;12.38;9.43;;;;;;;;;;5072419;28;20042;-63
2022/09/30 10:15:47;;;;;;;12.98;11.10;;;;;;;;;;5072741;28;20051;-64
2022/09/30 10:18:18;;;;;;;11.98;10.38;;;;;;;;;;5073934;28;20055;-63
2022/09/30 10:20:49;;;;;;;14.05;10.70;;;;;;;;;;5072827;28;20048;-63
2022/09/30 10:23:21;;;;;;;13.40;11.32;;;;;;;;;;5073860;28;20041;-64
2022/09/30 10:26:16;;;;;;;15.35;11.70;;;;;;;;;;5073371;28;20123;-63
2022/09/30 10:28:53;;;;;;;13.65;12.00;;;;;;;;;;5049913;28;20075;-63
2022/09/30 10:31:38;;;;;;;17.98;12.00;;;;;;;;;;5072331;28;20075;-63
2022/09/30 10:34:16;;;;;;;13.20;11.27;;;;;;;;;;5073362;28;20166;-64
2022/09/30 10:36:43;;;;;;;15.00;11.82;;;;;;;;;;5070925;28;20051;-63
2022/09/30 10:39:29;;;;;;;14.80;11.63;;;;;;;;;;5073542;28;20544;-63
2022/09/30 10:42:01;;;;;;;13.07;11.68;;;;;;;;;;5073237;28;20389;-64
2022/09/30 10:44:28;;;;;;;14.38;10.63;;;;;;;;;;5073388;28;20032;-64
2022/09/30 10:46:59;;;;;;;14.20;10.82;;;;;;;;;;5072482;28;20072;-64
2022/09/30 10:49:30;;;;;;;12.80;10.50;;;;;;;;;;5072083;28;20079;-65
2022/09/30 10:51:56;;;;;;;;;;;;;;;;;;5073391;28;20051;-63
2022/09/30 10:54:40;;;;;;;11.93;9.18;;;;;;;;;;5073517;28;19916;-63
2022/09/30 10:57:13;;;;;;;10.27;7.93;;;;;;;;;;5068678;28;20036;-65
2022/09/30 10:59:40;;;;;;;13.85;8.02;;;;;;;;;;5072803;28;20036;-65
2022/09/30 11:02:25;;;;;;;11.05;8.30;;;;;;;;;;5072658;28;20036;-65
2022/09/30 11:04:57;;;;;;;10.32;7.15;;;;;;;;;;5072844;28;20102;-64
2022/09/30 11:07:33;;;;;;;9.43;5.65;;;;;;;;;;5072595;28;20045;-65
2022/09/30 11:10:02;;;;;;;9.40;6.30;;;;;;;;;;5072941;28;20045;-65
2022/09/30 11:12:34;;;;;;;6.82;5.72;;;;;;;;;;5072525;28;20702;-64
2022/09/30 11:15:03;;;;;;;9.65;7.18;;;;;;;;;;5072583;28;20048;-63
2022/09/30 11:17:37;;;;;;;8.80;6.72;;;;;;;;;;5071428;28;20044;-64
2022/09/30 11:20:21;;;;;;;8.07;6.32;;;;;;;;;;5072442;28;20052;-64
2022/09/30 11:22:57;;;;;;;11.07;8.77;;;;;;;;;;5072306;28;20041;-64
2022/09/30 11:25:25;;;;;;;11.10;8.52;;;;;;;;;;5072563;28;20059;-64
2022/09/30 11:28:03;;;;;;;11.73;8.93;;;;;;;;;;5072444;28;20083;-65
2022/09/30 11:30:38;;;;;;;11.20;8.43;;;;;;;;;;5072541;28;20509;-65
2022/09/30 11:33:20;;;;;;;14.90;9.40;;;;;;;;;;5071914;28;20487;-64
2022/09/30 11:36:05;;;;;;;11.85;9.38;;;;;;;;;;5071720;28;20041;-64
2022/09/30 11:38:49;;;;;;;10.02;7.57;;;;;;;;;;5071864;28;20046;-64
2022/09/30 11:41:15;;;;;;;11.27;8.45;;;;;;;;;;5072111;28;20123;-64
2022/09/30 11:43:51;;;;;;;11.90;8.13;;;;;;;;;;5072476;28;20076;-63
2022/09/30 11:46:28;;;;;;;13.43;9.32;;;;;;;;;;5070984;28;20111;-64
2022/09/30 11:49:04;;;;;;;12.60;10.07;;;;;;;;;;5071763;28;20408;-64
2022/09/30 11:51:42;;;;;;;11.70;9.05;;;;;;;;;;5071747;28;20593;-63
2022/09/30 11:54:11;;;;;;;11.57;8.95;;;;;;;;;;5072108;28;20041;-64
2022/09/30 11:56:55;;;;;;;12.05;9.18;;;;;;;;;;5070852;28;20049;-64
2022/09/30 11:59:24;;;;;;;11.68;9.07;;;;;;;;;;5070572;28;20041;-65
2022/09/30 12:01:51;;;;;;;16.25;10.77;;;;;;;;;;5068948;28;20036;-65
2022/09/30 12:04:23;;;;;;;14.90;11.05;;;;;;;;;;5070135;28;20039;-64
2022/09/30 12:06:52;;;;;;;13.45;10.05;;;;;;;;;;5066586;28;20033;-64
2022/09/30 12:09:21;;;;;;;13.65;10.55;;;;;;;;;;5069831;28;20071;-64
2022/09/30 12:11:55;;;;;;;13.55;9.38;;;;;;;;;;5070688;28;20045;-65
2022/09/30 12:14:24;;;;;;;11.55;9.60;;;;;;;;;;5067005;28;20077;-64
2022/09/30 12:16:51;;;;;;;12.40;9.73;;;;;;;;;;5069487;28;20052;-64
2022/09/30 12:19:20;;;;;;;12.85;10.70;;;;;;;;;;5071133;28;20048;-64
2022/09/30 12:21:46;;;;;;;11.90;10.15;;;;;;;;;;5071421;28;20058;-64
2022/09/30 12:24:22;;;;;;;14.25;10.65;;;;;;;;;;5070366;28;20040;-65
2022/09/30 12:26:48;;;;;;;11.70;9.50;;;;;;;;;;5065488;28;20456;-65
2022/09/30 12:32:26;;;;;;;12.30;7.40;;;;;;;;;;5070692;28;20040;-65
2022/09/30 12:35:00;;;;;;;13.45;8.38;;;;;;;;;;5070775;28;20641;-65
2022/09/30 12:37:32;;;;;;;13.07;8.05;;;;;;;;;;5067647;28;20127;-64
2022/09/30 12:40:07;;;;;;;10.32;7.57;;;;;;;;;;5070389;28;20044;-64
2022/09/30 12:42:51;;;;;;;10.50;8.20;;;;;;;;;;5067363;28;20046;-65
2022/09/30 12:45:26;;;;;;;10.70;8.45;;;;;;;;;;5053430;28;20125;-65
2022/09/30 12:47:56;;;;;;;9.60;8.00;;;;;;;;;;5069913;28;20048;-63
2022/09/30 12:50:25;;;;;;;11.88;8.88;;;;;;;;;;5068281;28;20041;-65
2022/09/30 12:52:52;;;;;;;11.88;9.68;;;;;;;;;;5064907;28;20032;-64
2022/09/30 12:55:24;;;;;;;14.10;10.38;;;;;;;;;;5070080;28;20072;-65
2022/09/30 12:57:51;;;;;;;11.80;9.68;;;;;;;;;;5070536;28;20067;-65
2022/09/30 13:00:21;;;;;;;14.38;9.93;;;;;;;;;;5064337;28;20086;-64
2022/09/30 13:02:49;;;;;;;11.57;9.55;;;;;;;;;;5066291;28;20066;-64
2022/09/30 13:05:27;;;;;;;15.48;11.40;;;;;;;;;;5068379;28;20040;-65
2022/09/30 13:08:05;;;;;;;13.00;10.95;;;;;;;;;;5069744;28;20048;-64
2022/09/30 13:10:32;;;;;;;15.50;11.60;;;;;;;;;;5069830;28;20039;-64
2022/09/30 13:13:10;;;;;;;13.73;10.98;;;;;;;;;;5069782;28;20028;-64
2022/09/30 13:15:36;;;;;;;13.60;11.00;;;;;;;;;;5063547;28;20116;-65
2022/09/30 13:18:26;;;;;;;13.60;11.82;;;;;;;;;;5069265;28;20191;-64
2022/09/30 13:20:55;;;;;;;15.20;11.10;;;;;;;;;;5031488;28;20049;-64
2022/09/30 13:23:47;;;;;;;13.80;11.27;;;;;;;;;;5069503;28;20108;-63
2022/09/30 13:26:30;;;;;;;15.73;12.05;;;;;;;;;;5065763;28;20406;-64
2022/09/30 13:28:59;;;;;;;15.38;12.25;;;;;;;;;;5068380;28;20059;-63
2022/09/30 13:31:30;;;;;;;12.75;11.27;;;;;;;;;;5070487;28;20038;-64
2022/09/30 13:33:56;;;;;;;17.17;11.63;;;;;;;;;;5069899;28;20386;-64
2022/09/30 13:36:27;;;;;;;14.38;11.52;;;;;;;;;;5067624;28;20119;-64
2022/09/30 13:39:25;;;;;;;11.48;10.30;;;;;;;;;;5068640;28;20044;-64
2022/09/30 13:42:10;;;;;;;14.18;11.07;;;;;;;;;;5046575;28;20044;-65
2022/09/30 13:44:44;;;;;;;14.18;11.23;;;;;;;;;;5065958;28;20584;-63
2022/09/30 13:47:27;;;;;;;13.52;10.30;;;;;;;;;;5069400;28;20044;-64
2022/09/30 13:49:59;;;;;;;14.05;10.32;;;;;;;;;;5070269;28;20044;-64
2022/09/30 13:52:28;;;;;;;14.55;10.93;;;;;;;;;;5066216;28;20063;-65
2022/09/30 13:54:56;;;;;;;12.57;10.77;;;;;;;;;;5060623;28;20591;-64
2022/09/30 13:57:29;;;;;;;13.00;10.25;;;;;;;;;;5067888;28;20068;-64
2022/09/30 13:59:59;;;;;;;13.13;10.85;;;;;;;;;;5069132;28;20040;-64
2022/09/30 14:02:46;;;;;;;14.30;11.10;;;;;;;;;;5069017;28;20040;-64
2022/09/30 14:05:15;;;;;;;14.80;11.55;;;;;;;;;;5069405;28;20040;-64
2022/09/30 14:07:41;;;;;;;12.70;11.30;;;;;;;;;;5068747;28;20036;-64
2022/09/30 14:10:07;;;;;;;13.15;11.38;;;;;;;;;;5068707;28;20051;-64
2022/09/30 14:12:44;;;;;;;12.50;10.82;;;;;;;;;;5069576;28;20525;-63
2022/09/30 14:15:13;;;;;;;14.30;11.85;;;;;;;;;;5067111;28;20394;-64
2022/09/30 14:17:45;;;;;;;15.23;12.23;;;;;;;;;;5066813;28;20040;-63
2022/09/30 14:20:30;;;;;;;13.30;11.40;;;;;;;;;;5087376;22;20745;-66
2022/09/30 14:22:56;;;;;;;16.25;12.05;;;;;;;;;;5068166;28;20064;-66
2022/09/30 14:25:23;;;;;;;17.73;11.93;;;;;;;;;;5069830;28;20112;-67
2022/09/30 14:27:54;;;;;;;15.75;12.10;;;;;;;;;;5068230;28;20054;-66
2022/09/30 14:30:21;;;;;;;15.82;13.77;;;;;;;;;;5069889;28;20048;-66
2022/09/30 14:32:54;;;;;;;14.35;12.68;;;;;;;;;;5052291;28;20033;-67
2022/09/30 14:35:23;;;;;;;16.15;13.68;;;;;;;;;;5056191;28;20037;-67
2022/09/30 14:37:54;;;;;;;16.88;14.38;;;;;;;;;;5067330;28;20072;-66
2022/09/30 14:40:24;;;;;;;16.27;14.55;;;;;;;;;;5050765;28;20052;-66
2022/09/30 14:42:51;;;;;;;15.07;13.57;;;;;;;;;;5050631;28;20136;-66
2022/09/30 14:45:27;;;;;;;14.10;12.70;;;;;;;;;;5059179;28;20553;-66
2022/09/30 14:47:56;;;;;;;13.57;12.05;;;;;;;;;;5047953;28;20119;-66
2022/09/30 14:50:27;;;;;;;13.32;11.90;;;;;;;;;;5062851;28;20033;-66
2022/09/30 14:52:57;;;;;;;14.00;12.48;;;;;;;;;;5063759;28;20041;-66
2022/09/30 14:55:29;;;;;;;13.73;12.27;;;;;;;;;;5054411;28;20113;-66
2022/09/30 14:58:12;;;;;;;14.73;12.73;;;;;;;;;;5051413;28;20044;-66
2022/09/30 15:00:38;;;;;;;15.68;12.40;;;;;;;;;;5047204;28;20498;-66
2022/09/30 15:03:10;;;;;;;13.27;11.88;;;;;;;;;;5052698;28;20044;-66